Terminal Aerodrome Forecast
Issued by NWS Billings, MT

Home | Current Version | Previous Version | Text Only | Print | Product List | Glossary On
Versions: 1 2 3 4 5 6 7 8 9 10 11 12 13 14 15 16 17 18 19 20 21 22 23 24 25
000
FTUS45 KBYZ 221722
TAFMLS
TAF
KMLS 221722Z 2218/2318 06014KT P6SM FEW080 SCT250
     FM222200 11009KT P6SM VCTS SCT080CB BKN150
     FM230700 30024G37KT P6SM FEW150=

USA.gov is the U.S. government's official web portal to all federal, state and local government web resources and services.